sensor_id;sensor_type;location;lat;lon;timestamp;pressure;altitude;pressure_sealevel;temperature
70664;BMP280;58237;57.996;56.290;2022-07-12T00:02:11;100410.19;;;22.78
70664;BMP280;58237;57.996;56.290;2022-07-12T00:04:37;100405.28;;;22.77
70664;BMP280;58237;57.996;56.290;2022-07-12T00:07:02;100406.75;;;22.78
70664;BMP280;58237;57.996;56.290;2022-07-12T00:09:28;100411.69;;;22.76
70664;BMP280;58237;57.996;56.290;2022-07-12T00:11:54;100417.78;;;22.76
70664;BMP280;58237;57.996;56.290;2022-07-12T00:14:19;100412.47;;;22.76
70664;BMP280;58237;57.996;56.290;2022-07-12T00:16:45;100413.56;;;22.75
70664;BMP280;58237;57.996;56.290;2022-07-12T00:19:10;100413.97;;;22.77
70664;BMP280;58237;57.996;56.290;2022-07-12T00:21:36;100413.28;;;22.80
70664;BMP280;58237;57.996;56.290;2022-07-12T00:24:01;100416.34;;;22.82
70664;BMP280;58237;57.996;56.290;2022-07-12T00:26:28;100412.19;;;22.85
70664;BMP280;58237;57.996;56.290;2022-07-12T00:28:53;100413.41;;;22.87
70664;BMP280;58237;57.996;56.290;2022-07-12T00:31:19;100412.59;;;22.83
70664;BMP280;58237;57.996;56.290;2022-07-12T00:33:44;100427.09;;;22.89
70664;BMP280;58237;57.996;56.290;2022-07-12T00:36:10;100427.50;;;22.91
70664;BMP280;58237;57.996;56.290;2022-07-12T00:38:36;100425.69;;;22.95
70664;BMP280;58237;57.996;56.290;2022-07-12T00:41:01;100427.63;;;22.98
70664;BMP280;58237;57.996;56.290;2022-07-12T00:43:27;100427.19;;;22.96
70664;BMP280;58237;57.996;56.290;2022-07-12T00:45:53;100432.44;;;22.93
70664;BMP280;58237;57.996;56.290;2022-07-12T00:48:18;100433.91;;;22.90
70664;BMP280;58237;57.996;56.290;2022-07-12T00:50:46;100436.25;;;22.92
70664;BMP280;58237;57.996;56.290;2022-07-12T00:53:13;100433.22;;;22.93
70664;BMP280;58237;57.996;56.290;2022-07-12T00:55:38;100440.47;;;22.96
70664;BMP280;58237;57.996;56.290;2022-07-12T00:58:04;100439.75;;;22.99
70664;BMP280;58237;57.996;56.290;2022-07-12T01:00:30;100436.81;;;23.04
70664;BMP280;58237;57.996;56.290;2022-07-12T01:02:57;100443.31;;;23.07
70664;BMP280;58237;57.996;56.290;2022-07-12T01:05:23;100445.59;;;23.08
70664;BMP280;58237;57.996;56.290;2022-07-12T01:07:49;100437.59;;;23.05
70664;BMP280;58237;57.996;56.290;2022-07-12T01:10:15;100445.88;;;23.03
70664;BMP280;58237;57.996;56.290;2022-07-12T01:12:42;100440.97;;;23.02
70664;BMP280;58237;57.996;56.290;2022-07-12T01:15:08;100437.91;;;23.03
70664;BMP280;58237;57.996;56.290;2022-07-12T01:17:34;100441.06;;;23.09
70664;BMP280;58237;57.996;56.290;2022-07-12T01:20:00;100442.69;;;23.13
70664;BMP280;58237;57.996;56.290;2022-07-12T01:22:31;100449.88;;;23.13
70664;BMP280;58237;57.996;56.290;2022-07-12T01:24:57;100445.66;;;23.12
70664;BMP280;58237;57.996;56.290;2022-07-12T01:27:24;100450.25;;;23.15
70664;BMP280;58237;57.996;56.290;2022-07-12T01:29:50;100441.25;;;23.19
70664;BMP280;58237;57.996;56.290;2022-07-12T01:32:16;100443.59;;;23.24
70664;BMP280;58237;57.996;56.290;2022-07-12T01:34:42;100447.06;;;23.28
70664;BMP280;58237;57.996;56.290;2022-07-12T01:37:09;100440.66;;;23.33
70664;BMP280;58237;57.996;56.290;2022-07-12T01:39:35;100446.03;;;23.36
70664;BMP280;58237;57.996;56.290;2022-07-12T01:42:01;100441.16;;;23.39
70664;BMP280;58237;57.996;56.290;2022-07-12T01:44:27;100447.72;;;23.48
70664;BMP280;58237;57.996;56.290;2022-07-12T01:46:52;100449.72;;;23.55
70664;BMP280;58237;57.996;56.290;2022-07-12T01:49:18;100449.81;;;23.62
70664;BMP280;58237;57.996;56.290;2022-07-12T01:51:44;100447.66;;;23.71
70664;BMP280;58237;57.996;56.290;2022-07-12T01:54:09;100446.66;;;23.82
70664;BMP280;58237;57.996;56.290;2022-07-12T01:56:35;100446.81;;;23.93
70664;BMP280;58237;57.996;56.290;2022-07-12T01:59:01;100441.59;;;24.00
70664;BMP280;58237;57.996;56.290;2022-07-12T02:01:27;100446.50;;;24.01
70664;BMP280;58237;57.996;56.290;2022-07-12T02:03:53;100442.38;;;24.04
70664;BMP280;58237;57.996;56.290;2022-07-12T02:06:19;100440.53;;;24.08
70664;BMP280;58237;57.996;56.290;2022-07-12T02:08:45;100443.25;;;24.15
70664;BMP280;58237;57.996;56.290;2022-07-12T02:11:11;100437.66;;;24.24
70664;BMP280;58237;57.996;56.290;2022-07-12T02:13:36;100438.88;;;24.33
70664;BMP280;58237;57.996;56.290;2022-07-12T02:16:22;100447.31;;;24.39
70664;BMP280;58237;57.996;56.290;2022-07-12T02:18:47;100436.72;;;24.42
70664;BMP280;58237;57.996;56.290;2022-07-12T02:21:13;100438.25;;;24.47
70664;BMP280;58237;57.996;56.290;2022-07-12T02:23:38;100445.56;;;24.53
70664;BMP280;58237;57.996;56.290;2022-07-12T02:26:04;100440.66;;;24.59
70664;BMP280;58237;57.996;56.290;2022-07-12T02:28:30;100444.50;;;24.65
70664;BMP280;58237;57.996;56.290;2022-07-12T02:30:55;100444.97;;;24.70
70664;BMP280;58237;57.996;56.290;2022-07-12T02:33:21;100446.16;;;24.76
70664;BMP280;58237;57.996;56.290;2022-07-12T02:35:46;100442.34;;;24.77
70664;BMP280;58237;57.996;56.290;2022-07-12T02:38:12;100439.34;;;24.82
70664;BMP280;58237;57.996;56.290;2022-07-12T02:40:37;100435.53;;;24.83
70664;BMP280;58237;57.996;56.290;2022-07-12T02:43:03;100440.44;;;24.81
70664;BMP280;58237;57.996;56.290;2022-07-12T02:45:29;100441.59;;;24.80
70664;BMP280;58237;57.996;56.290;2022-07-12T02:47:54;100440.09;;;24.79
70664;BMP280;58237;57.996;56.290;2022-07-12T02:50:20;100442.34;;;24.77
70664;BMP280;58237;57.996;56.290;2022-07-12T02:52:45;100440.09;;;24.79
70664;BMP280;58237;57.996;56.290;2022-07-12T02:55:11;100437.09;;;24.85
70664;BMP280;58237;57.996;56.290;2022-07-12T02:57:37;100440.94;;;24.91
70664;BMP280;58237;57.996;56.290;2022-07-12T03:00:02;100440.19;;;24.94
70664;BMP280;58237;57.996;56.290;2022-07-12T03:02:29;100431.47;;;24.97
70664;BMP280;58237;57.996;56.290;2022-07-12T03:04:54;100426.91;;;25.01
70664;BMP280;58237;57.996;56.290;2022-07-12T03:07:20;100426.53;;;25.06
70664;BMP280;58237;57.996;56.290;2022-07-12T03:09:45;100423.59;;;25.14
70664;BMP280;58237;57.996;56.290;2022-07-12T03:12:11;100415.22;;;25.16
70664;BMP280;58237;57.996;56.290;2022-07-12T03:14:37;100421.38;;;25.27
70664;BMP280;58237;57.996;56.290;2022-07-12T03:17:02;100424.84;;;25.38
70664;BMP280;58237;57.996;56.290;2022-07-12T03:19:28;100419.19;;;25.46
70664;BMP280;58237;57.996;56.290;2022-07-12T03:21:54;100423.03;;;25.56
70664;BMP280;58237;57.996;56.290;2022-07-12T03:24:19;100420.00;;;25.61
70664;BMP280;58237;57.996;56.290;2022-07-12T03:26:45;100420.03;;;25.68
70664;BMP280;58237;57.996;56.290;2022-07-12T03:29:10;100412.47;;;25.77
70664;BMP280;58237;57.996;56.290;2022-07-12T03:31:36;100414.75;;;25.86
70664;BMP280;58237;57.996;56.290;2022-07-12T03:34:01;100416.69;;;25.96
70664;BMP280;58237;57.996;56.290;2022-07-12T03:36:27;100422.81;;;26.03
70664;BMP280;58237;57.996;56.290;2022-07-12T03:38:53;100416.34;;;26.11
70664;BMP280;58237;57.996;56.290;2022-07-12T03:41:18;100405.66;;;26.18
70664;BMP280;58237;57.996;56.290;2022-07-12T03:43:44;100411.78;;;26.29
70664;BMP280;58237;57.996;56.290;2022-07-12T03:46:09;100417.91;;;26.41
70664;BMP280;58237;57.996;56.290;2022-07-12T03:48:35;100411.06;;;26.54
70664;BMP280;58237;57.996;56.290;2022-07-12T03:51:00;100421.34;;;26.66
70664;BMP280;58237;57.996;56.290;2022-07-12T03:53:26;100410.25;;;26.78
70664;BMP280;58237;57.996;56.290;2022-07-12T03:55:52;100423.22;;;26.86
70664;BMP280;58237;57.996;56.290;2022-07-12T03:58:17;100425.13;;;26.93
70664;BMP280;58237;57.996;56.290;2022-07-12T04:00:43;100417.09;;;26.96
70664;BMP280;58237;57.996;56.290;2022-07-12T04:03:09;100422.47;;;27.00
70664;BMP280;58237;57.996;56.290;2022-07-12T04:05:36;100420.13;;;27.02
70664;BMP280;58237;57.996;56.290;2022-07-12T04:08:01;100426.59;;;27.08
70664;BMP280;58237;57.996;56.290;2022-07-12T04:10:28;100414.38;;;27.17
70664;BMP280;58237;57.996;56.290;2022-07-12T04:12:53;100423.13;;;27.32
70664;BMP280;58237;57.996;56.290;2022-07-12T04:15:19;100420.00;;;27.44
70664;BMP280;58237;57.996;56.290;2022-07-12T04:17:44;100424.19;;;27.56
70664;BMP280;58237;57.996;56.290;2022-07-12T04:20:10;100428.38;;;27.60
70664;BMP280;58237;57.996;56.290;2022-07-12T04:22:36;100421.47;;;27.66
70664;BMP280;58237;57.996;56.290;2022-07-12T04:25:02;100418.72;;;27.73
70664;BMP280;58237;57.996;56.290;2022-07-12T04:27:28;100422.50;;;27.83
70664;BMP280;58237;57.996;56.290;2022-07-12T04:29:54;100418.66;;;27.87
70664;BMP280;58237;57.996;56.290;2022-07-12T04:32:19;100427.38;;;27.95
70664;BMP280;58237;57.996;56.290;2022-07-12T04:34:45;100428.88;;;28.03
70664;BMP280;58237;57.996;56.290;2022-07-12T04:37:11;100429.97;;;28.13
70664;BMP280;58237;57.996;56.290;2022-07-12T04:39:36;100438.72;;;28.20
70664;BMP280;58237;57.996;56.290;2022-07-12T04:42:02;100438.69;;;28.24
70664;BMP280;58237;57.996;56.290;2022-07-12T04:44:27;100429.88;;;28.27
70664;BMP280;58237;57.996;56.290;2022-07-12T04:46:53;100437.47;;;28.32
70664;BMP280;58237;57.996;56.290;2022-07-12T04:49:19;100437.06;;;28.37
70664;BMP280;58237;57.996;56.290;2022-07-12T04:51:44;100438.97;;;28.36
70664;BMP280;58237;57.996;56.290;2022-07-12T04:54:10;100443.13;;;28.44
70664;BMP280;58237;57.996;56.290;2022-07-12T04:56:35;100442.31;;;28.51
70664;BMP280;58237;57.996;56.290;2022-07-12T04:59:01;100428.44;;;28.56
70664;BMP280;58237;57.996;56.290;2022-07-12T05:01:29;100434.13;;;28.61
70664;BMP280;58237;57.996;56.290;2022-07-12T05:03:55;100433.03;;;28.59
70664;BMP280;58237;57.996;56.290;2022-07-12T05:06:21;100442.22;;;28.58
70664;BMP280;58237;57.996;56.290;2022-07-12T05:08:46;100439.63;;;28.51
70664;BMP280;58237;57.996;56.290;2022-07-12T05:11:12;100432.75;;;28.46
70664;BMP280;58237;57.996;56.290;2022-07-12T05:13:37;100433.03;;;28.55
70664;BMP280;58237;57.996;56.290;2022-07-12T05:16:06;100429.88;;;28.67
70664;BMP280;58237;57.996;56.290;2022-07-12T05:18:31;100426.34;;;28.77
70664;BMP280;58237;57.996;56.290;2022-07-12T05:20:57;100429.63;;;28.92
70664;BMP280;58237;57.996;56.290;2022-07-12T05:23:23;100428.34;;;29.07
70664;BMP280;58237;57.996;56.290;2022-07-12T05:25:48;100423.19;;;29.20
70664;BMP280;58237;57.996;56.290;2022-07-12T05:28:14;100423.88;;;29.27
70664;BMP280;58237;57.996;56.290;2022-07-12T05:30:40;100427.19;;;29.35
70664;BMP280;58237;57.996;56.290;2022-07-12T05:33:05;100426.72;;;29.43
70664;BMP280;58237;57.996;56.290;2022-07-12T05:35:31;100426.66;;;29.50
70664;BMP280;58237;57.996;56.290;2022-07-12T05:37:56;100429.16;;;29.61
70664;BMP280;58237;57.996;56.290;2022-07-12T05:40:22;100427.16;;;29.68
70664;BMP280;58237;57.996;56.290;2022-07-12T05:42:47;100424.38;;;29.75
70664;BMP280;58237;57.996;56.290;2022-07-12T05:45:13;100428.06;;;29.85
70664;BMP280;58237;57.996;56.290;2022-07-12T05:47:39;100416.84;;;29.90
70664;BMP280;58237;57.996;56.290;2022-07-12T05:50:05;100417.88;;;30.00
70664;BMP280;58237;57.996;56.290;2022-07-12T05:52:30;100425.03;;;30.06
70664;BMP280;58237;57.996;56.290;2022-07-12T05:54:56;100423.41;;;30.12
70664;BMP280;58237;57.996;56.290;2022-07-12T05:57:21;100414.94;;;30.14
70664;BMP280;58237;57.996;56.290;2022-07-12T05:59:47;100424.19;;;30.13
70664;BMP280;58237;57.996;56.290;2022-07-12T06:02:13;100418.94;;;30.06
70664;BMP280;58237;57.996;56.290;2022-07-12T06:04:38;100416.03;;;29.93
70664;BMP280;58237;57.996;56.290;2022-07-12T06:07:04;100416.22;;;29.83
70664;BMP280;58237;57.996;56.290;2022-07-12T06:09:30;100412.41;;;29.80
70664;BMP280;58237;57.996;56.290;2022-07-12T06:11:55;100419.28;;;29.81
70664;BMP280;58237;57.996;56.290;2022-07-12T06:14:21;100417.69;;;29.84
70664;BMP280;58237;57.996;56.290;2022-07-12T06:16:47;100411.94;;;29.85
70664;BMP280;58237;57.996;56.290;2022-07-12T06:19:13;100410.69;;;29.90
70664;BMP280;58237;57.996;56.290;2022-07-12T06:21:38;100414.91;;;29.94
70664;BMP280;58237;57.996;56.290;2022-07-12T06:24:04;100416.63;;;30.04
70664;BMP280;58237;57.996;56.290;2022-07-12T06:26:30;100420.78;;;30.09
70664;BMP280;58237;57.996;56.290;2022-07-12T06:28:55;100420.31;;;30.14
70664;BMP280;58237;57.996;56.290;2022-07-12T06:31:21;100421.81;;;30.15
70664;BMP280;58237;57.996;56.290;2022-07-12T06:33:47;100423.78;;;30.14
70664;BMP280;58237;57.996;56.290;2022-07-12T06:36:12;100423.00;;;30.14
70664;BMP280;58237;57.996;56.290;2022-07-12T06:38:38;100420.25;;;30.17
70664;BMP280;58237;57.996;56.290;2022-07-12T06:41:03;100423.72;;;30.18
70664;BMP280;58237;57.996;56.290;2022-07-12T06:43:29;100424.06;;;30.20
70664;BMP280;58237;57.996;56.290;2022-07-12T06:45:55;100427.09;;;30.22
70664;BMP280;58237;57.996;56.290;2022-07-12T06:48:20;100428.22;;;30.24
70664;BMP280;58237;57.996;56.290;2022-07-12T06:50:46;100418.50;;;30.30
70664;BMP280;58237;57.996;56.290;2022-07-12T06:53:12;100425.41;;;30.31
70664;BMP280;58237;57.996;56.290;2022-07-12T06:55:37;100430.72;;;30.35
70664;BMP280;58237;57.996;56.290;2022-07-12T06:58:03;100436.00;;;30.42
70664;BMP280;58237;57.996;56.290;2022-07-12T07:00:29;100425.50;;;30.47
70664;BMP280;58237;57.996;56.290;2022-07-12T07:02:54;100425.38;;;30.54
70664;BMP280;58237;57.996;56.290;2022-07-12T07:05:20;100423.31;;;30.62
70664;BMP280;58237;57.996;56.290;2022-07-12T07:07:45;100420.81;;;30.71
70664;BMP280;58237;57.996;56.290;2022-07-12T07:10:11;100422.91;;;30.83
70664;BMP280;58237;57.996;56.290;2022-07-12T07:12:36;100420.44;;;30.92
70664;BMP280;58237;57.996;56.290;2022-07-12T07:15:02;100419.56;;;30.95
70664;BMP280;58237;57.996;56.290;2022-07-12T07:17:29;100414.19;;;30.95
70664;BMP280;58237;57.996;56.290;2022-07-12T07:19:54;100413.84;;;30.93
70664;BMP280;58237;57.996;56.290;2022-07-12T07:22:20;100415.06;;;30.92
70664;BMP280;58237;57.996;56.290;2022-07-12T07:24:45;100412.69;;;30.94
70664;BMP280;58237;57.996;56.290;2022-07-12T07:27:11;100423.41;;;30.98
70664;BMP280;58237;57.996;56.290;2022-07-12T07:29:37;100414.91;;;30.99
70664;BMP280;58237;57.996;56.290;2022-07-12T07:32:03;100412.03;;;31.06
70664;BMP280;58237;57.996;56.290;2022-07-12T07:34:29;100408.47;;;31.13
70664;BMP280;58237;57.996;56.290;2022-07-12T07:36:54;100411.88;;;31.17
70664;BMP280;58237;57.996;56.290;2022-07-12T07:39:20;100407.56;;;31.19
70664;BMP280;58237;57.996;56.290;2022-07-12T07:41:45;100409.06;;;31.20
70664;BMP280;58237;57.996;56.290;2022-07-12T07:44:11;100408.25;;;31.23
70664;BMP280;58237;57.996;56.290;2022-07-12T07:46:36;100404.72;;;31.26
70664;BMP280;58237;57.996;56.290;2022-07-12T07:49:02;100392.78;;;31.27
70664;BMP280;58237;57.996;56.290;2022-07-12T07:51:29;100402.03;;;31.26
70664;BMP280;58237;57.996;56.290;2022-07-12T07:53:55;100396.56;;;31.30
70664;BMP280;58237;57.996;56.290;2022-07-12T07:56:20;100402.22;;;31.35
70664;BMP280;58237;57.996;56.290;2022-07-12T07:58:46;100401.72;;;31.40
70664;BMP280;58237;57.996;56.290;2022-07-12T08:01:12;100395.47;;;31.43
70664;BMP280;58237;57.996;56.290;2022-07-12T08:03:37;100397.34;;;31.46
70664;BMP280;58237;57.996;56.290;2022-07-12T08:06:03;100401.91;;;31.49
70664;BMP280;58237;57.996;56.290;2022-07-12T08:08:28;100399.88;;;31.53
70664;BMP280;58237;57.996;56.290;2022-07-12T08:10:54;100395.50;;;31.59
70664;BMP280;58237;57.996;56.290;2022-07-12T08:13:20;100395.75;;;31.65
70664;BMP280;58237;57.996;56.290;2022-07-12T08:15:46;100388.75;;;31.67
70664;BMP280;58237;57.996;56.290;2022-07-12T08:18:12;100397.94;;;31.70
70664;BMP280;58237;57.996;56.290;2022-07-12T08:20:38;100396.34;;;31.73
70664;BMP280;58237;57.996;56.290;2022-07-12T08:23:04;100388.28;;;31.73
70664;BMP280;58237;57.996;56.290;2022-07-12T08:25:29;100381.22;;;31.79
70664;BMP280;58237;57.996;56.290;2022-07-12T08:27:55;100394.94;;;31.84
70664;BMP280;58237;57.996;56.290;2022-07-12T08:30:21;100403.31;;;31.86
70664;BMP280;58237;57.996;56.290;2022-07-12T08:32:46;100386.63;;;31.91
70664;BMP280;58237;57.996;56.290;2022-07-12T08:35:12;100390.75;;;31.96
70664;BMP280;58237;57.996;56.290;2022-07-12T08:37:38;100389.91;;;31.99
70664;BMP280;58237;57.996;56.290;2022-07-12T08:40:04;100385.53;;;32.05
70664;BMP280;58237;57.996;56.290;2022-07-12T08:42:30;100384.16;;;32.13
70664;BMP280;58237;57.996;56.290;2022-07-12T08:44:57;100384.28;;;32.22
70664;BMP280;58237;57.996;56.290;2022-07-12T08:47:24;100390.28;;;32.29
70664;BMP280;58237;57.996;56.290;2022-07-12T08:50:19;100386.31;;;32.34
70664;BMP280;58237;57.996;56.290;2022-07-12T08:52:49;100376.16;;;32.38
70664;BMP280;58237;57.996;56.290;2022-07-12T08:57:49;100369.75;;;32.48
70664;BMP280;58237;57.996;56.290;2022-07-12T09:00:15;100370.25;;;32.43
70664;BMP280;58237;57.996;56.290;2022-07-12T09:02:54;100367.53;;;32.43
70664;BMP280;58237;57.996;56.290;2022-07-12T09:05:24;100368.97;;;32.47
70664;BMP280;58237;57.996;56.290;2022-07-12T09:07:51;100363.47;;;32.51
70664;BMP280;58237;57.996;56.290;2022-07-12T09:10:26;100359.50;;;32.55
70664;BMP280;58237;57.996;56.290;2022-07-12T09:12:51;100357.22;;;32.54
70664;BMP280;58237;57.996;56.290;2022-07-12T09:15:19;100359.97;;;32.38
70664;BMP280;58237;57.996;56.290;2022-07-12T09:17:58;100354.78;;;32.31
70664;BMP280;58237;57.996;56.290;2022-07-12T09:20:28;100361.50;;;32.39
70664;BMP280;58237;57.996;56.290;2022-07-12T09:22:58;100353.56;;;32.48
70664;BMP280;58237;57.996;56.290;2022-07-12T09:25:24;100353.34;;;32.55
70664;BMP280;58237;57.996;56.290;2022-07-12T09:27:51;100350.78;;;32.64
70664;BMP280;58237;57.996;56.290;2022-07-12T09:30:18;100347.53;;;32.69
70664;BMP280;58237;57.996;56.290;2022-07-12T09:32:55;100348.81;;;32.77
70664;BMP280;58237;57.996;56.290;2022-07-12T09:35:22;100343.34;;;32.81
70664;BMP280;58237;57.996;56.290;2022-07-12T09:37:47;100340.22;;;32.82
70664;BMP280;58237;57.996;56.290;2022-07-12T09:40:13;100338.16;;;32.86
70664;BMP280;58237;57.996;56.290;2022-07-12T09:42:39;100334.50;;;32.93
70664;BMP280;58237;57.996;56.290;2022-07-12T09:45:07;100331.25;;;32.98
70664;BMP280;58237;57.996;56.290;2022-07-12T09:47:33;100328.00;;;33.03
70664;BMP280;58237;57.996;56.290;2022-07-12T09:49:59;100322.50;;;33.06
70664;BMP280;58237;57.996;56.290;2022-07-12T09:52:25;100321.75;;;33.06
70664;BMP280;58237;57.996;56.290;2022-07-12T09:54:53;100319.03;;;33.06
70664;BMP280;58237;57.996;56.290;2022-07-12T09:57:26;100319.81;;;33.06
70664;BMP280;58237;57.996;56.290;2022-07-12T09:59:52;100309.31;;;33.08
70664;BMP280;58237;57.996;56.290;2022-07-12T10:02:18;100315.78;;;33.11
70664;BMP280;58237;57.996;56.290;2022-07-12T10:04:46;100307.91;;;33.16
70664;BMP280;58237;57.996;56.290;2022-07-12T10:07:12;100303.47;;;33.22
70664;BMP280;58237;57.996;56.290;2022-07-12T10:09:40;100294.16;;;33.23
70664;BMP280;58237;57.996;56.290;2022-07-12T10:12:08;100287.88;;;33.26
70664;BMP280;58237;57.996;56.290;2022-07-12T10:14:34;100292.22;;;33.24
70664;BMP280;58237;57.996;56.290;2022-07-12T10:17:01;100297.41;;;33.18
70664;BMP280;58237;57.996;56.290;2022-07-12T10:19:29;100299.78;;;33.16
70664;BMP280;58237;57.996;56.290;2022-07-12T10:21:57;100298.31;;;33.15
70664;BMP280;58237;57.996;56.290;2022-07-12T10:29:39;100302.19;;;33.14
70664;BMP280;58237;57.996;56.290;2022-07-12T10:32:31;100302.19;;;33.14
70664;BMP280;58237;57.996;56.290;2022-07-12T10:35:20;100291.19;;;32.84
70664;BMP280;58237;57.996;56.290;2022-07-12T10:38:13;100297.47;;;32.68
70664;BMP280;58237;57.996;56.290;2022-07-12T10:40:40;100290.75;;;32.60
70664;BMP280;58237;57.996;56.290;2022-07-12T10:45:32;100304.75;;;32.42
70664;BMP280;58237;57.996;56.290;2022-07-12T10:53:32;100310.38;;;32.48
70664;BMP280;58237;57.996;56.290;2022-07-12T10:58:31;100302.19;;;32.64
70664;BMP280;58237;57.996;56.290;2022-07-12T11:00:57;100313.50;;;32.72
70664;BMP280;58237;57.996;56.290;2022-07-12T11:03:23;100313.44;;;32.75
70664;BMP280;58237;57.996;56.290;2022-07-12T11:05:50;100314.81;;;32.80
70664;BMP280;58237;57.996;56.290;2022-07-12T11:08:15;100310.84;;;32.84
70664;BMP280;58237;57.996;56.290;2022-07-12T11:10:54;100306.41;;;32.90
70664;BMP280;58237;57.996;56.290;2022-07-12T11:13:21;100309.09;;;32.90
70664;BMP280;58237;57.996;56.290;2022-07-12T11:16:00;100311.16;;;32.86
70664;BMP280;58237;57.996;56.290;2022-07-12T11:18:33;100304.03;;;32.80
70664;BMP280;58237;57.996;56.290;2022-07-12T11:21:00;100314.97;;;32.76
70664;BMP280;58237;57.996;56.290;2022-07-12T11:23:27;100300.78;;;32.72
70664;BMP280;58237;57.996;56.290;2022-07-12T11:25:57;100301.97;;;32.71
70664;BMP280;58237;57.996;56.290;2022-07-12T11:28:23;100287.50;;;32.65
70664;BMP280;58237;57.996;56.290;2022-07-12T11:30:54;100286.00;;;32.64
70664;BMP280;58237;57.996;56.290;2022-07-12T11:33:40;100280.06;;;32.56
70664;BMP280;58237;57.996;56.290;2022-07-12T11:36:08;100282.53;;;32.51
70664;BMP280;58237;57.996;56.290;2022-07-12T11:38:35;100277.91;;;32.39
70664;BMP280;58237;57.996;56.290;2022-07-12T11:41:03;100271.38;;;32.24
70664;BMP280;58237;57.996;56.290;2022-07-12T11:43:30;100275.78;;;32.18
70664;BMP280;58237;57.996;56.290;2022-07-12T11:45:56;100267.91;;;32.11
70664;BMP280;58237;57.996;56.290;2022-07-12T11:48:22;100257.66;;;32.06
70664;BMP280;58237;57.996;56.290;2022-07-12T11:50:53;100263.91;;;32.03
70664;BMP280;58237;57.996;56.290;2022-07-12T11:53:24;100267.00;;;32.01
70664;BMP280;58237;57.996;56.290;2022-07-12T11:55:52;100252.88;;;31.97
70664;BMP280;58237;57.996;56.290;2022-07-12T11:58:18;100256.00;;;31.96
70664;BMP280;58237;57.996;56.290;2022-07-12T12:00:45;100254.81;;;31.97
70664;BMP280;58237;57.996;56.290;2022-07-12T12:03:15;100263.53;;;32.01
70664;BMP280;58237;57.996;56.290;2022-07-12T12:05:40;100250.44;;;32.03
70664;BMP280;58237;57.996;56.290;2022-07-12T12:08:07;100251.16;;;32.03
70664;BMP280;58237;57.996;56.290;2022-07-12T12:10:33;100255.81;;;32.03
70664;BMP280;58237;57.996;56.290;2022-07-12T12:13:00;100262.38;;;32.02
70664;BMP280;58237;57.996;56.290;2022-07-12T12:15:28;100254.28;;;32.02
70664;BMP280;58237;57.996;56.290;2022-07-12T12:18:01;100247.72;;;32.03
70664;BMP280;58237;57.996;56.290;2022-07-12T12:20:28;100247.19;;;32.08
70664;BMP280;58237;57.996;56.290;2022-07-12T12:22:59;100247.00;;;32.15
70664;BMP280;58237;57.996;56.290;2022-07-12T12:25:26;100242.59;;;32.21
70664;BMP280;58237;57.996;56.290;2022-07-12T12:28:00;100251.53;;;32.30
70664;BMP280;58237;57.996;56.290;2022-07-12T12:30:26;100245.19;;;32.37
70664;BMP280;58237;57.996;56.290;2022-07-12T12:32:54;100239.91;;;32.46
70664;BMP280;58237;57.996;56.290;2022-07-12T12:35:21;100243.81;;;32.57
70664;BMP280;58237;57.996;56.290;2022-07-12T12:37:52;100234.75;;;32.64
70664;BMP280;58237;57.996;56.290;2022-07-12T12:40:19;100240.66;;;32.59
70664;BMP280;58237;57.996;56.290;2022-07-12T12:42:45;100264.09;;;32.62
70664;BMP280;58237;57.996;56.290;2022-07-12T12:45:24;100244.53;;;32.33
70664;BMP280;58237;57.996;56.290;2022-07-12T12:48:07;100247.44;;;32.26
70664;BMP280;58237;57.996;56.290;2022-07-12T12:53:10;100239.56;;;32.19
70664;BMP280;58237;57.996;56.290;2022-07-12T12:55:36;100239.19;;;32.04
70664;BMP280;58237;57.996;56.290;2022-07-12T12:58:03;100228.47;;;31.88
70664;BMP280;58237;57.996;56.290;2022-07-12T13:00:29;100221.66;;;31.71
70664;BMP280;58237;57.996;56.290;2022-07-12T13:02:55;100219.72;;;31.55
70664;BMP280;58237;57.996;56.290;2022-07-12T13:05:21;100216.97;;;31.43
70664;BMP280;58237;57.996;56.290;2022-07-12T13:07:46;100218.84;;;31.30
70664;BMP280;58237;57.996;56.290;2022-07-12T13:10:12;100219.97;;;31.16
70664;BMP280;58237;57.996;56.290;2022-07-12T13:12:37;100235.63;;;31.05
70664;BMP280;58237;57.996;56.290;2022-07-12T13:15:03;100246.53;;;30.98
70664;BMP280;58237;57.996;56.290;2022-07-12T13:17:29;100251.31;;;30.91
70664;BMP280;58237;57.996;56.290;2022-07-12T13:19:55;100239.94;;;30.83
70664;BMP280;58237;57.996;56.290;2022-07-12T13:22:20;100226.25;;;30.78
70664;BMP280;58237;57.996;56.290;2022-07-12T13:24:46;100233.72;;;30.70
70664;BMP280;58237;57.996;56.290;2022-07-12T13:27:11;100251.09;;;30.65
70664;BMP280;58237;57.996;56.290;2022-07-12T13:29:37;100276.56;;;30.61
70664;BMP280;58237;57.996;56.290;2022-07-12T13:32:03;100311.25;;;30.55
70664;BMP280;58237;57.996;56.290;2022-07-12T13:34:28;100298.97;;;30.35
70664;BMP280;58237;57.996;56.290;2022-07-12T13:36:54;100323.56;;;30.14
70664;BMP280;58237;57.996;56.290;2022-07-12T13:39:20;100318.31;;;29.84
70664;BMP280;58237;57.996;56.290;2022-07-12T13:41:45;100303.16;;;29.47
70664;BMP280;58237;57.996;56.290;2022-07-12T13:44:11;100299.94;;;29.06
70664;BMP280;58237;57.996;56.290;2022-07-12T13:46:36;100315.63;;;28.77
70664;BMP280;58237;57.996;56.290;2022-07-12T13:49:02;100329.41;;;28.45
70664;BMP280;58237;57.996;56.290;2022-07-12T13:51:28;100328.66;;;28.00
70664;BMP280;58237;57.996;56.290;2022-07-12T13:53:53;100320.50;;;27.63
70664;BMP280;58237;57.996;56.290;2022-07-12T13:56:19;100317.56;;;27.40
70664;BMP280;58237;57.996;56.290;2022-07-12T13:58:44;100322.25;;;27.29
70664;BMP280;58237;57.996;56.290;2022-07-12T14:01:10;100308.50;;;27.20
70664;BMP280;58237;57.996;56.290;2022-07-12T14:03:35;100283.41;;;27.00